Terminal Aerodrome Forecast
Issued by NWS Lake Charles, LA

Home | Current Version | Previous Version | Text Only | Print | Product List | Glossary On
Versions: 1 2 3 4 5 6 7 8 9 10 11 12 13 14 15 16 17 18 19 20 21 22
000
FTUS44 KLCH 012000 AAA
TAFAEX
TAF AMD
KAEX 012057Z 0121/0218 24015G25KT P6SM -RA SCT022 SCT040 BKN070
     FM012200 VRB12G18KT 4SM -SHRA BR BKN022 OVC040
      TEMPO 0122/0124 VRB15G25KT 2SM SHRA BKN015 OVC022
     FM020000 32012G18KT P6SM -RA OVC015
     FM020200 32012G18KT P6SM SCT025 BKN045
     FM020500 33010G15KT P6SM SKC=

USA.gov is the U.S. government's official web portal to all federal, state and local government web resources and services.